sensor_id;sensor_type;location;lat;lon;timestamp;temperature;humidity
26408;DHT22;14583;43.604;1.364;2022-09-12T00:00:50;24.70;87.70
26408;DHT22;14583;43.604;1.364;2022-09-12T00:03:16;24.80;87.70
26408;DHT22;14583;43.604;1.364;2022-09-12T00:05:42;24.90;87.00
26408;DHT22;14583;43.604;1.364;2022-09-12T00:08:09;24.80;87.90
26408;DHT22;14583;43.604;1.364;2022-09-12T00:10:42;24.70;87.90
26408;DHT22;14583;43.604;1.364;2022-09-12T00:13:08;24.80;88.20
26408;DHT22;14583;43.604;1.364;2022-09-12T00:15:42;24.80;88.70
26408;DHT22;14583;43.604;1.364;2022-09-12T00:18:11;24.70;89.20
26408;DHT22;14583;43.604;1.364;2022-09-12T00:20:41;24.80;88.50
26408;DHT22;14583;43.604;1.364;2022-09-12T00:23:07;24.90;87.70
26408;DHT22;14583;43.604;1.364;2022-09-12T00:25:33;25.00;88.30
26408;DHT22;14583;43.604;1.364;2022-09-12T00:27:58;24.90;89.30
26408;DHT22;14583;43.604;1.364;2022-09-12T00:30:24;24.80;89.60
26408;DHT22;14583;43.604;1.364;2022-09-12T00:32:50;24.90;89.80
26408;DHT22;14583;43.604;1.364;2022-09-12T00:35:16;25.00;88.80
26408;DHT22;14583;43.604;1.364;2022-09-12T00:37:41;25.00;89.30
26408;DHT22;14583;43.604;1.364;2022-09-12T00:40:07;25.00;90.10
26408;DHT22;14583;43.604;1.364;2022-09-12T00:42:33;25.00;89.50
26408;DHT22;14583;43.604;1.364;2022-09-12T00:44:58;25.10;89.00
26408;DHT22;14583;43.604;1.364;2022-09-12T00:47:27;24.80;90.60
26408;DHT22;14583;43.604;1.364;2022-09-12T00:50:11;24.70;90.70
26408;DHT22;14583;43.604;1.364;2022-09-12T00:53:19;24.70;90.90
26408;DHT22;14583;43.604;1.364;2022-09-12T00:55:40;24.80;91.10
26408;DHT22;14583;43.604;1.364;2022-09-12T00:58:21;24.70;91.30
26408;DHT22;14583;43.604;1.364;2022-09-12T01:00:47;24.70;91.30
26408;DHT22;14583;43.604;1.364;2022-09-12T01:03:16;24.60;91.60
26408;DHT22;14583;43.604;1.364;2022-09-12T01:05:51;24.60;91.50
26408;DHT22;14583;43.604;1.364;2022-09-12T01:08:18;24.70;91.30
26408;DHT22;14583;43.604;1.364;2022-09-12T01:10:45;24.70;91.70
26408;DHT22;14583;43.604;1.364;2022-09-12T01:13:11;24.70;91.50
26408;DHT22;14583;43.604;1.364;2022-09-12T01:15:37;24.70;92.10
26408;DHT22;14583;43.604;1.364;2022-09-12T01:37:41;24.60;92.60
26408;DHT22;14583;43.604;1.364;2022-09-12T01:40:22;24.70;92.70
26408;DHT22;14583;43.604;1.364;2022-09-12T01:45:39;24.60;93.20
26408;DHT22;14583;43.604;1.364;2022-09-12T01:48:18;24.60;93.70
26408;DHT22;14583;43.604;1.364;2022-09-12T01:53:39;24.50;94.10
26408;DHT22;14583;43.604;1.364;2022-09-12T01:56:17;24.50;94.30
26408;DHT22;14583;43.604;1.364;2022-09-12T02:01:27;24.60;94.40
26408;DHT22;14583;43.604;1.364;2022-09-12T02:06:31;24.60;94.70
26408;DHT22;14583;43.604;1.364;2022-09-12T02:09:21;24.60;94.60
26408;DHT22;14583;43.604;1.364;2022-09-12T02:11:54;24.60;95.10
26408;DHT22;14583;43.604;1.364;2022-09-12T02:14:24;24.40;95.70
26408;DHT22;14583;43.604;1.364;2022-09-12T02:16:55;24.30;96.00
26408;DHT22;14583;43.604;1.364;2022-09-12T02:19:27;24.30;96.30
26408;DHT22;14583;43.604;1.364;2022-09-12T02:21:57;24.40;96.20
26408;DHT22;14583;43.604;1.364;2022-09-12T02:24:29;24.40;96.20
26408;DHT22;14583;43.604;1.364;2022-09-12T02:27:00;24.30;96.40
26408;DHT22;14583;43.604;1.364;2022-09-12T02:29:28;24.20;96.80
26408;DHT22;14583;43.604;1.364;2022-09-12T02:31:59;24.20;97.00
26408;DHT22;14583;43.604;1.364;2022-09-12T02:34:41;24.10;97.60
26408;DHT22;14583;43.604;1.364;2022-09-12T02:39:40;24.00;98.20
26408;DHT22;14583;43.604;1.364;2022-09-12T02:42:06;24.20;97.60
26408;DHT22;14583;43.604;1.364;2022-09-12T02:44:33;24.10;97.80
26408;DHT22;14583;43.604;1.364;2022-09-12T02:47:09;24.00;98.70
26408;DHT22;14583;43.604;1.364;2022-09-12T02:49:37;24.00;98.60
26408;DHT22;14583;43.604;1.364;2022-09-12T02:52:03;24.20;98.50
26408;DHT22;14583;43.604;1.364;2022-09-12T02:54:29;24.20;98.40
26408;DHT22;14583;43.604;1.364;2022-09-12T02:56:55;23.70;99.90
26408;DHT22;14583;43.604;1.364;2022-09-12T02:59:22;23.90;99.60
26408;DHT22;14583;43.604;1.364;2022-09-12T03:02:03;24.00;99.10
26408;DHT22;14583;43.604;1.364;2022-09-12T03:05:07;23.90;99.90
26408;DHT22;14583;43.604;1.364;2022-09-12T03:13:06;23.80;99.90
26408;DHT22;14583;43.604;1.364;2022-09-12T03:23:33;23.90;99.90
26408;DHT22;14583;43.604;1.364;2022-09-12T03:26:15;23.60;99.90
26408;DHT22;14583;43.604;1.364;2022-09-12T03:28:44;23.50;99.90
26408;DHT22;14583;43.604;1.364;2022-09-12T03:31:13;23.30;99.90
26408;DHT22;14583;43.604;1.364;2022-09-12T03:33:39;23.30;99.90
26408;DHT22;14583;43.604;1.364;2022-09-12T03:36:05;23.40;99.90
26408;DHT22;14583;43.604;1.364;2022-09-12T03:38:30;23.50;99.90
26408;DHT22;14583;43.604;1.364;2022-09-12T03:40:56;23.30;99.90
26408;DHT22;14583;43.604;1.364;2022-09-12T03:43:21;23.30;99.90
26408;DHT22;14583;43.604;1.364;2022-09-12T03:45:49;23.40;99.90
26408;DHT22;14583;43.604;1.364;2022-09-12T03:48:17;23.50;99.90
26408;DHT22;14583;43.604;1.364;2022-09-12T03:50:43;23.60;99.90
26408;DHT22;14583;43.604;1.364;2022-09-12T03:53:08;23.60;99.90
26408;DHT22;14583;43.604;1.364;2022-09-12T03:55:34;23.50;99.90
26408;DHT22;14583;43.604;1.364;2022-09-12T03:58:00;23.60;99.90
26408;DHT22;14583;43.604;1.364;2022-09-12T04:00:26;23.60;99.90
26408;DHT22;14583;43.604;1.364;2022-09-12T04:02:55;23.60;99.90
26408;DHT22;14583;43.604;1.364;2022-09-12T04:05:22;23.60;99.90
26408;DHT22;14583;43.604;1.364;2022-09-12T04:07:48;23.70;99.90
26408;DHT22;14583;43.604;1.364;2022-09-12T04:10:13;23.90;99.90
26408;DHT22;14583;43.604;1.364;2022-09-12T04:12:39;23.90;99.90
26408;DHT22;14583;43.604;1.364;2022-09-12T04:15:06;23.80;99.90
26408;DHT22;14583;43.604;1.364;2022-09-12T04:17:33;23.90;99.90
26408;DHT22;14583;43.604;1.364;2022-09-12T04:19:59;23.70;99.90
26408;DHT22;14583;43.604;1.364;2022-09-12T04:22:24;23.80;99.90
26408;DHT22;14583;43.604;1.364;2022-09-12T04:24:50;23.80;99.90
26408;DHT22;14583;43.604;1.364;2022-09-12T04:27:16;23.60;99.90
26408;DHT22;14583;43.604;1.364;2022-09-12T04:29:41;23.50;99.90
26408;DHT22;14583;43.604;1.364;2022-09-12T04:32:07;23.40;99.90
26408;DHT22;14583;43.604;1.364;2022-09-12T04:34:32;23.50;99.90
26408;DHT22;14583;43.604;1.364;2022-09-12T04:36:58;23.40;99.90
26408;DHT22;14583;43.604;1.364;2022-09-12T04:39:24;23.20;99.90
26408;DHT22;14583;43.604;1.364;2022-09-12T04:41:49;23.20;99.90
26408;DHT22;14583;43.604;1.364;2022-09-12T04:44:16;23.20;99.90
26408;DHT22;14583;43.604;1.364;2022-09-12T04:46:44;23.30;99.90
26408;DHT22;14583;43.604;1.364;2022-09-12T04:49:10;23.40;99.90
26408;DHT22;14583;43.604;1.364;2022-09-12T04:51:37;23.30;99.90
26408;DHT22;14583;43.604;1.364;2022-09-12T04:54:15;23.30;99.90
26408;DHT22;14583;43.604;1.364;2022-09-12T04:56:43;23.40;99.90
26408;DHT22;14583;43.604;1.364;2022-09-12T04:59:10;23.00;99.90
26408;DHT22;14583;43.604;1.364;2022-09-12T05:01:36;23.10;99.90
26408;DHT22;14583;43.604;1.364;2022-09-12T05:04:02;23.10;99.90
26408;DHT22;14583;43.604;1.364;2022-09-12T05:06:30;23.00;99.90
26408;DHT22;14583;43.604;1.364;2022-09-12T05:08:56;23.00;99.90
26408;DHT22;14583;43.604;1.364;2022-09-12T05:11:28;22.90;99.90
26408;DHT22;14583;43.604;1.364;2022-09-12T05:13:54;22.90;99.90
26408;DHT22;14583;43.604;1.364;2022-09-12T05:16:20;23.00;99.90
26408;DHT22;14583;43.604;1.364;2022-09-12T05:18:47;23.10;99.90
26408;DHT22;14583;43.604;1.364;2022-09-12T05:21:15;23.10;99.90
26408;DHT22;14583;43.604;1.364;2022-09-12T05:23:41;23.10;99.90
26408;DHT22;14583;43.604;1.364;2022-09-12T05:26:09;23.10;99.90
26408;DHT22;14583;43.604;1.364;2022-09-12T05:28:37;23.00;99.90
26408;DHT22;14583;43.604;1.364;2022-09-12T05:31:15;23.10;99.90
26408;DHT22;14583;43.604;1.364;2022-09-12T05:33:42;23.00;99.90
26408;DHT22;14583;43.604;1.364;2022-09-12T05:36:28;23.00;99.90
26408;DHT22;14583;43.604;1.364;2022-09-12T05:38:54;23.00;99.90
26408;DHT22;14583;43.604;1.364;2022-09-12T05:41:22;23.00;99.90
26408;DHT22;14583;43.604;1.364;2022-09-12T05:43:56;23.10;99.90
26408;DHT22;14583;43.604;1.364;2022-09-12T05:46:24;23.00;99.90
26408;DHT22;14583;43.604;1.364;2022-09-12T05:48:51;23.20;99.90
26408;DHT22;14583;43.604;1.364;2022-09-12T05:51:20;23.20;99.90
26408;DHT22;14583;43.604;1.364;2022-09-12T05:53:52;23.10;99.90
26408;DHT22;14583;43.604;1.364;2022-09-12T05:56:20;23.00;99.90
26408;DHT22;14583;43.604;1.364;2022-09-12T05:58:59;23.00;99.90
26408;DHT22;14583;43.604;1.364;2022-09-12T06:01:26;22.80;99.90
26408;DHT22;14583;43.604;1.364;2022-09-12T06:03:53;22.90;99.90
26408;DHT22;14583;43.604;1.364;2022-09-12T06:06:21;22.90;99.90
26408;DHT22;14583;43.604;1.364;2022-09-12T06:08:49;22.90;99.90
26408;DHT22;14583;43.604;1.364;2022-09-12T06:11:18;23.00;99.90
26408;DHT22;14583;43.604;1.364;2022-09-12T06:13:44;23.10;99.90
26408;DHT22;14583;43.604;1.364;2022-09-12T06:16:22;23.20;99.90
26408;DHT22;14583;43.604;1.364;2022-09-12T06:18:49;23.20;99.90
26408;DHT22;14583;43.604;1.364;2022-09-12T06:21:16;23.10;99.90
26408;DHT22;14583;43.604;1.364;2022-09-12T06:23:43;23.10;99.90
26408;DHT22;14583;43.604;1.364;2022-09-12T06:26:11;23.20;99.90
26408;DHT22;14583;43.604;1.364;2022-09-12T06:28:39;23.30;99.90
26408;DHT22;14583;43.604;1.364;2022-09-12T06:31:10;23.40;99.90
26408;DHT22;14583;43.604;1.364;2022-09-12T06:33:39;23.50;99.90
26408;DHT22;14583;43.604;1.364;2022-09-12T06:36:07;23.40;99.90
26408;DHT22;14583;43.604;1.364;2022-09-12T06:38:33;23.30;99.90
26408;DHT22;14583;43.604;1.364;2022-09-12T06:40:59;23.40;99.90
26408;DHT22;14583;43.604;1.364;2022-09-12T06:43:25;23.50;99.90
26408;DHT22;14583;43.604;1.364;2022-09-12T06:45:51;23.50;99.90
26408;DHT22;14583;43.604;1.364;2022-09-12T06:48:17;23.50;99.90
26408;DHT22;14583;43.604;1.364;2022-09-12T06:50:42;23.40;99.90
26408;DHT22;14583;43.604;1.364;2022-09-12T06:53:08;23.40;99.90
26408;DHT22;14583;43.604;1.364;2022-09-12T06:55:34;23.50;99.90
26408;DHT22;14583;43.604;1.364;2022-09-12T06:58:00;23.50;99.90
26408;DHT22;14583;43.604;1.364;2022-09-12T07:00:26;23.50;99.90
26408;DHT22;14583;43.604;1.364;2022-09-12T07:02:54;23.40;99.90
26408;DHT22;14583;43.604;1.364;2022-09-12T07:05:23;23.50;99.90
26408;DHT22;14583;43.604;1.364;2022-09-12T07:07:48;23.60;99.90
26408;DHT22;14583;43.604;1.364;2022-09-12T07:10:14;23.60;99.90
26408;DHT22;14583;43.604;1.364;2022-09-12T07:12:40;23.70;99.90
26408;DHT22;14583;43.604;1.364;2022-09-12T07:15:05;23.90;99.90
26408;DHT22;14583;43.604;1.364;2022-09-12T07:17:31;23.90;99.90
26408;DHT22;14583;43.604;1.364;2022-09-12T07:19:57;23.90;99.90
26408;DHT22;14583;43.604;1.364;2022-09-12T07:22:23;23.90;99.90
26408;DHT22;14583;43.604;1.364;2022-09-12T07:24:48;23.90;99.90
26408;DHT22;14583;43.604;1.364;2022-09-12T07:27:14;23.90;99.90
26408;DHT22;14583;43.604;1.364;2022-09-12T07:29:40;23.90;99.90
26408;DHT22;14583;43.604;1.364;2022-09-12T07:32:06;23.90;99.90
26408;DHT22;14583;43.604;1.364;2022-09-12T07:34:32;23.90;99.90
26408;DHT22;14583;43.604;1.364;2022-09-12T07:36:58;24.00;99.90
26408;DHT22;14583;43.604;1.364;2022-09-12T07:39:24;24.10;99.90
26408;DHT22;14583;43.604;1.364;2022-09-12T07:41:50;24.10;99.90
26408;DHT22;14583;43.604;1.364;2022-09-12T07:44:15;24.10;99.90
26408;DHT22;14583;43.604;1.364;2022-09-12T07:46:41;24.20;99.90
26408;DHT22;14583;43.604;1.364;2022-09-12T07:49:07;24.20;99.90
26408;DHT22;14583;43.604;1.364;2022-09-12T07:51:32;24.30;99.90
26408;DHT22;14583;43.604;1.364;2022-09-12T07:53:58;24.40;99.90
26408;DHT22;14583;43.604;1.364;2022-09-12T07:56:25;24.50;99.90
26408;DHT22;14583;43.604;1.364;2022-09-12T07:58:51;24.50;99.90
26408;DHT22;14583;43.604;1.364;2022-09-12T08:01:19;24.60;99.90
26408;DHT22;14583;43.604;1.364;2022-09-12T08:03:47;24.70;99.90
26408;DHT22;14583;43.604;1.364;2022-09-12T08:06:18;24.70;99.90
26408;DHT22;14583;43.604;1.364;2022-09-12T08:08:45;24.60;99.90
26408;DHT22;14583;43.604;1.364;2022-09-12T08:11:12;24.60;99.90
26408;DHT22;14583;43.604;1.364;2022-09-12T08:13:40;24.60;99.90
26408;DHT22;14583;43.604;1.364;2022-09-12T08:16:14;24.70;99.90
26408;DHT22;14583;43.604;1.364;2022-09-12T08:18:40;24.80;99.90
26408;DHT22;14583;43.604;1.364;2022-09-12T08:21:14;24.90;99.90
26408;DHT22;14583;43.604;1.364;2022-09-12T08:23:41;24.90;99.90
26408;DHT22;14583;43.604;1.364;2022-09-12T08:26:08;25.00;99.90
26408;DHT22;14583;43.604;1.364;2022-09-12T08:28:35;25.00;99.90
26408;DHT22;14583;43.604;1.364;2022-09-12T08:31:06;25.00;99.90
26408;DHT22;14583;43.604;1.364;2022-09-12T08:33:32;25.10;99.90
26408;DHT22;14583;43.604;1.364;2022-09-12T08:36:12;25.10;99.90
26408;DHT22;14583;43.604;1.364;2022-09-12T08:38:41;25.10;99.90
26408;DHT22;14583;43.604;1.364;2022-09-12T08:44:17;25.30;99.90
26408;DHT22;14583;43.604;1.364;2022-09-12T08:53:03;25.40;99.90
26408;DHT22;14583;43.604;1.364;2022-09-12T08:58:13;25.50;99.90
26408;DHT22;14583;43.604;1.364;2022-09-12T09:00:48;25.60;99.90
26408;DHT22;14583;43.604;1.364;2022-09-12T09:06:24;25.70;99.90
26408;DHT22;14583;43.604;1.364;2022-09-12T09:11:33;25.80;99.90
26408;DHT22;14583;43.604;1.364;2022-09-12T09:16:47;25.80;99.90
26408;DHT22;14583;43.604;1.364;2022-09-12T09:22:42;25.90;99.90
26408;DHT22;14583;43.604;1.364;2022-09-12T09:25:24;26.00;99.90
26408;DHT22;14583;43.604;1.364;2022-09-12T09:28:00;26.10;99.90
26408;DHT22;14583;43.604;1.364;2022-09-12T09:30:28;26.20;99.90
26408;DHT22;14583;43.604;1.364;2022-09-12T09:32:58;26.30;99.80
26408;DHT22;14583;43.604;1.364;2022-09-12T09:38:04;26.30;99.50
26408;DHT22;14583;43.604;1.364;2022-09-12T09:41:03;26.30;99.50
26408;DHT22;14583;43.604;1.364;2022-09-12T09:43:31;26.50;99.30
26408;DHT22;14583;43.604;1.364;2022-09-12T09:45:57;26.60;99.00
26408;DHT22;14583;43.604;1.364;2022-09-12T09:48:26;26.60;98.80
26408;DHT22;14583;43.604;1.364;2022-09-12T09:50:52;26.60;98.80
26408;DHT22;14583;43.604;1.364;2022-09-12T09:53:39;26.90;98.80
26408;DHT22;14583;43.604;1.364;2022-09-12T09:56:13;27.00;98.30
26408;DHT22;14583;43.604;1.364;2022-09-12T09:58:39;27.10;98.30
26408;DHT22;14583;43.604;1.364;2022-09-12T10:01:14;27.10;97.90
26408;DHT22;14583;43.604;1.364;2022-09-12T10:03:47;27.00;97.60
26408;DHT22;14583;43.604;1.364;2022-09-12T10:06:29;27.00;97.30
26408;DHT22;14583;43.604;1.364;2022-09-12T10:11:31;27.10;97.20
26408;DHT22;14583;43.604;1.364;2022-09-12T10:13:57;27.20;97.00
26408;DHT22;14583;43.604;1.364;2022-09-12T10:16:30;27.20;96.80
26408;DHT22;14583;43.604;1.364;2022-09-12T10:19:01;27.20;96.50
26408;DHT22;14583;43.604;1.364;2022-09-12T10:21:31;27.30;96.30
26408;DHT22;14583;43.604;1.364;2022-09-12T10:26:26;27.50;96.10
26408;DHT22;14583;43.604;1.364;2022-09-12T10:28:56;27.50;95.60
26408;DHT22;14583;43.604;1.364;2022-09-12T10:31:44;27.50;95.60
26408;DHT22;14583;43.604;1.364;2022-09-12T10:34:42;27.70;95.60
26408;DHT22;14583;43.604;1.364;2022-09-12T10:37:23;27.70;95.40
26408;DHT22;14583;43.604;1.364;2022-09-12T10:39:55;27.70;95.70
26408;DHT22;14583;43.604;1.364;2022-09-12T10:42:43;27.80;95.40
26408;DHT22;14583;43.604;1.364;2022-09-12T10:45:25;28.00;95.30
26408;DHT22;14583;43.604;1.364;2022-09-12T10:47:52;28.10;95.00
26408;DHT22;14583;43.604;1.364;2022-09-12T10:52:46;28.10;95.20
26408;DHT22;14583;43.604;1.364;2022-09-12T10:55:13;28.10;95.40
26408;DHT22;14583;43.604;1.364;2022-09-12T10:57:43;28.20;95.30
26408;DHT22;14583;43.604;1.364;2022-09-12T11:00:12;28.20;94.90
26408;DHT22;14583;43.604;1.364;2022-09-12T11:08:17;28.50;94.70
26408;DHT22;14583;43.604;1.364;2022-09-12T11:11:49;28.60;94.50
26408;DHT22;14583;43.604;1.364;2022-09-12T11:17:38;28.80;94.20
26408;DHT22;14583;43.604;1.364;2022-09-12T11:25:49;29.00;94.20
26408;DHT22;14583;43.604;1.364;2022-09-12T11:33:45;29.40;93.70
26408;DHT22;14583;43.604;1.364;2022-09-12T11:36:35;29.30;93.40
26408;DHT22;14583;43.604;1.364;2022-09-12T11:39:15;29.30;92.90
26408;DHT22;14583;43.604;1.364;2022-09-12T11:41:44;29.20;93.00
26408;DHT22;14583;43.604;1.364;2022-09-12T11:44:17;29.10;92.60
26408;DHT22;14583;43.604;1.364;2022-09-12T11:46:45;29.10;92.80
26408;DHT22;14583;43.604;1.364;2022-09-12T12:02:26;29.00;92.90
26408;DHT22;14583;43.604;1.364;2022-09-12T12:05:12;29.20;93.00
26408;DHT22;14583;43.604;1.364;2022-09-12T12:07:42;29.40;93.20
26408;DHT22;14583;43.604;1.364;2022-09-12T12:10:35;29.50;93.40
26408;DHT22;14583;43.604;1.364;2022-09-12T12:13:08;29.60;93.60
26408;DHT22;14583;43.604;1.364;2022-09-12T12:15:36;29.50;93.10
26408;DHT22;14583;43.604;1.364;2022-09-12T12:20:31;28.90;93.50
26408;DHT22;14583;43.604;1.364;2022-09-12T12:22:56;28.70;94.20
26408;DHT22;14583;43.604;1.364;2022-09-12T12:25:25;28.70;94.30
26408;DHT22;14583;43.604;1.364;2022-09-12T12:28:02;28.80;94.20
26408;DHT22;14583;43.604;1.364;2022-09-12T12:38:35;28.50;94.70
26408;DHT22;14583;43.604;1.364;2022-09-12T12:43:52;28.30;94.40
26408;DHT22;14583;43.604;1.364;2022-09-12T12:46:24;28.20;94.40
26408;DHT22;14583;43.604;1.364;2022-09-12T12:48:54;28.20;94.60
26408;DHT22;14583;43.604;1.364;2022-09-12T12:51:41;28.10;94.40
26408;DHT22;14583;43.604;1.364;2022-09-12T12:54:46;28.20;94.60
26408;DHT22;14583;43.604;1.364;2022-09-12T12:59:55;28.20;94.40
26408;DHT22;14583;43.604;1.364;2022-09-12T13:02:36;28.30;94.50
26408;DHT22;14583;43.604;1.364;2022-09-12T13:05:12;28.30;94.20
26408;DHT22;14583;43.604;1.364;2022-09-12T13:07:42;28.40;94.20
26408;DHT22;14583;43.604;1.364;2022-09-12T13:10:26;28.50;94.00
26408;DHT22;14583;43.604;1.364;2022-09-12T13:12:56;28.70;94.00
26408;DHT22;14583;43.604;1.364;2022-09-12T13:18:13;29.00;93.40
26408;DHT22;14583;43.604;1.364;2022-09-12T13:20:59;29.00;93.40
26408;DHT22;14583;43.604;1.364;2022-09-12T13:23:30;29.00;93.10
26408;DHT22;14583;43.604;1.364;2022-09-12T13:25:58;28.90;93.20
26408;DHT22;14583;43.604;1.364;2022-09-12T13:28:25;28.80;93.40
26408;DHT22;14583;43.604;1.364;2022-09-12T13:33:44;28.70;93.80
26408;DHT22;14583;43.604;1.364;2022-09-12T13:44:19;29.20;93.50
26408;DHT22;14583;43.604;1.364;2022-09-12T13:46:46;29.20;93.70
26408;DHT22;14583;43.604;1.364;2022-09-12T13:51:45;29.40;93.90
26408;DHT22;14583;43.604;1.364;2022-09-12T13:54:16;29.50;93.80
26408;DHT22;14583;43.604;1.364;2022-09-12T13:56:47;29.40;94.10
26408;DHT22;14583;43.604;1.364;2022-09-12T13:59:13;29.50;93.50
26408;DHT22;14583;43.604;1.364;2022-09-12T14:01:43;29.20;93.50
26408;DHT22;14583;43.604;1.364;2022-09-12T14:04:21;29.30;93.60
26408;DHT22;14583;43.604;1.364;2022-09-12T14:07:12;29.40;93.20
26408;DHT22;14583;43.604;1.364;2022-09-12T14:09:44;29.50;93.50
26408;DHT22;14583;43.604;1.364;2022-09-12T14:12:33;29.70;93.30
26408;DHT22;14583;43.604;1.364;2022-09-12T14:15:01;30.00;92.90
26408;DHT22;14583;43.604;1.364;2022-09-12T14:20:01;29.80;92.70
26408;DHT22;14583;43.604;1.364;2022-09-12T14:22:28;29.80;93.10
26408;DHT22;14583;43.604;1.364;2022-09-12T14:24:55;29.60;93.00
26408;DHT22;14583;43.604;1.364;2022-09-12T14:27:40;29.60;93.10
26408;DHT22;14583;43.604;1.364;2022-09-12T14:30:23;29.50;93.20
26408;DHT22;14583;43.604;1.364;2022-09-12T14:35:33;29.30;93.50
26408;DHT22;14583;43.604;1.364;2022-09-12T14:38:07;29.70;93.50
26408;DHT22;14583;43.604;1.364;2022-09-12T14:40:43;29.80;92.90
26408;DHT22;14583;43.604;1.364;2022-09-12T14:43:20;29.50;93.20
26408;DHT22;14583;43.604;1.364;2022-09-12T14:45:54;29.50;93.50
26408;DHT22;14583;43.604;1.364;2022-09-12T14:48:20;29.70;93.40
26408;DHT22;14583;43.604;1.364;2022-09-12T14:50:51;30.10;93.10
26408;DHT22;14583;43.604;1.364;2022-09-12T14:53:25;30.10;92.80
26408;DHT22;14583;43.604;1.364;2022-09-12T14:56:05;30.10;93.00
26408;DHT22;14583;43.604;1.364;2022-09-12T14:58:32;30.10;93.10
26408;DHT22;14583;43.604;1.364;2022-09-12T15:03:34;30.50;92.90
26408;DHT22;14583;43.604;1.364;2022-09-12T15:06:01;30.80;93.00
26408;DHT22;14583;43.604;1.364;2022-09-12T15:08:28;30.50;92.70
26408;DHT22;14583;43.604;1.364;2022-09-12T15:10:54;30.10;93.50
26408;DHT22;14583;43.604;1.364;2022-09-12T15:13:22;30.10;93.50
26408;DHT22;14583;43.604;1.364;2022-09-12T15:15:55;30.20;93.60
26408;DHT22;14583;43.604;1.364;2022-09-12T15:18:23;30.30;93.60
26408;DHT22;14583;43.604;1.364;2022-09-12T15:21:00;30.40;94.00
26408;DHT22;14583;43.604;1.364;2022-09-12T15:23:31;30.30;93.90
26408;DHT22;14583;43.604;1.364;2022-09-12T15:25:59;30.20;94.20
26408;DHT22;14583;43.604;1.364;2022-09-12T15:28:25;30.40;94.20
26408;DHT22;14583;43.604;1.364;2022-09-12T15:30:53;30.70;94.10
26408;DHT22;14583;43.604;1.364;2022-09-12T15:33:21;31.60;93.80
26408;DHT22;14583;43.604;1.364;2022-09-12T15:35:49;32.50;92.00
26408;DHT22;14583;43.604;1.364;2022-09-12T15:38:14;34.90;90.40
26408;DHT22;14583;43.604;1.364;2022-09-12T15:40:40;37.20;84.20
26408;DHT22;14583;43.604;1.364;2022-09-12T15:43:06;39.70;78.70
26408;DHT22;14583;43.604;1.364;2022-09-12T15:45:33;41.10;73.40
26408;DHT22;14583;43.604;1.364;2022-09-12T15:48:00;38.60;76.20
26408;DHT22;14583;43.604;1.364;2022-09-12T15:50:26;36.90;79.80
26408;DHT22;14583;43.604;1.364;2022-09-12T15:52:53;34.90;83.00
26408;DHT22;14583;43.604;1.364;2022-09-12T15:55:26;33.80;86.10
26408;DHT22;14583;43.604;1.364;2022-09-12T15:57:52;35.00;86.10
26408;DHT22;14583;43.604;1.364;2022-09-12T16:00:18;38.80;80.20
26408;DHT22;14583;43.604;1.364;2022-09-12T16:02:45;41.00;74.80
26408;DHT22;14583;43.604;1.364;2022-09-12T16:05:25;41.80;71.10
26408;DHT22;14583;43.604;1.364;2022-09-12T16:07:52;42.50;68.40
26408;DHT22;14583;43.604;1.364;2022-09-12T16:10:22;41.90;67.60
26408;DHT22;14583;43.604;1.364;2022-09-12T16:12:48;42.20;67.80
26408;DHT22;14583;43.604;1.364;2022-09-12T16:15:19;41.70;67.00
26408;DHT22;14583;43.604;1.364;2022-09-12T16:17:45;38.50;71.10
26408;DHT22;14583;43.604;1.364;2022-09-12T16:20:11;35.20;79.10
26408;DHT22;14583;43.604;1.364;2022-09-12T16:22:37;34.40;82.40
26408;DHT22;14583;43.604;1.364;2022-09-12T16:25:03;36.20;80.80
26408;DHT22;14583;43.604;1.364;2022-09-12T16:27:29;36.90;80.10
26408;DHT22;14583;43.604;1.364;2022-09-12T16:29:55;37.20;78.10
26408;DHT22;14583;43.604;1.364;2022-09-12T16:32:21;37.70;77.40
26408;DHT22;14583;43.604;1.364;2022-09-12T16:34:46;37.20;77.60
26408;DHT22;14583;43.604;1.364;2022-09-12T16:37:12;36.80;79.10
26408;DHT22;14583;43.604;1.364;2022-09-12T16:39:37;36.10;79.90
26408;DHT22;14583;43.604;1.364;2022-09-12T16:42:03;35.40;81.60
26408;DHT22;14583;43.604;1.364;2022-09-12T16:44:29;35.20;83.10
26408;DHT22;14583;43.604;1.364;2022-09-12T16:46:54;35.20;83.30
26408;DHT22;14583;43.604;1.364;2022-09-12T16:49:20;34.80;83.50
26408;DHT22;14583;43.604;1.364;2022-09-12T16:51:46;34.80;85.20
26408;DHT22;14583;43.604;1.364;2022-09-12T16:54:13;33.10;88.10
26408;DHT22;14583;43.604;1.364;2022-09-12T16:56:39;32.60;90.00
26408;DHT22;14583;43.604;1.364;2022-09-12T16:59:05;32.60;90.60
26408;DHT22;14583;43.604;1.364;2022-09-12T17:01:31;32.70;90.40
26408;DHT22;14583;43.604;1.364;2022-09-12T17:03:59;32.70;90.80
26408;DHT22;14583;43.604;1.364;2022-09-12T17:06:25;32.30;90.90
26408;DHT22;14583;43.604;1.364;2022-09-12T17:08:52;31.70;91.90
26408;DHT22;14583;43.604;1.364;2022-09-12T17:11:25;31.20;92.50
26408;DHT22;14583;43.604;1.364;2022-09-12T17:13:53;30.60;93.70
26408;DHT22;14583;43.604;1.364;2022-09-12T17:16:20;30.00;94.90
26408;DHT22;14583;43.604;1.364;2022-09-12T17:18:46;29.70;95.80
26408;DHT22;14583;43.604;1.364;2022-09-12T17:21:12;29.40;96.60
26408;DHT22;14583;43.604;1.364;2022-09-12T17:23:38;29.40;97.30
26408;DHT22;14583;43.604;1.364;2022-09-12T17:26:05;29.10;98.40
26408;DHT22;14583;43.604;1.364;2022-09-12T17:28:31;28.90;99.20
26408;DHT22;14583;43.604;1.364;2022-09-12T17:31:02;28.90;99.90
26408;DHT22;14583;43.604;1.364;2022-09-12T17:33:28;28.40;99.90
26408;DHT22;14583;43.604;1.364;2022-09-12T17:35:58;28.40;99.90
26408;DHT22;14583;43.604;1.364;2022-09-12T17:38:24;28.40;99.90
26408;DHT22;14583;43.604;1.364;2022-09-12T17:40:50;28.10;99.90
26408;DHT22;14583;43.604;1.364;2022-09-12T17:43:16;27.90;99.90
26408;DHT22;14583;43.604;1.364;2022-09-12T17:45:41;28.00;99.90
26408;DHT22;14583;43.604;1.364;2022-09-12T17:48:09;27.80;99.90
26408;DHT22;14583;43.604;1.364;2022-09-12T17:50:36;27.70;99.90
26408;DHT22;14583;43.604;1.364;2022-09-12T17:53:02;27.70;99.90
26408;DHT22;14583;43.604;1.364;2022-09-12T17:55:28;27.50;99.90
26408;DHT22;14583;43.604;1.364;2022-09-12T17:57:59;27.40;99.90
26408;DHT22;14583;43.604;1.364;2022-09-12T18:00:26;27.20;99.90
26408;DHT22;14583;43.604;1.364;2022-09-12T18:03:11;27.10;99.90
26408;DHT22;14583;43.604;1.364;2022-09-12T18:05:46;27.20;99.90
26408;DHT22;14583;43.604;1.364;2022-09-12T18:08:13;27.20;99.90
26408;DHT22;14583;43.604;1.364;2022-09-12T18:10:39;27.10;99.90
26408;DHT22;14583;43.604;1.364;2022-09-12T18:13:05;26.80;99.90
26408;DHT22;14583;43.604;1.364;2022-09-12T18:15:34;26.70;99.90
26408;DHT22;14583;43.604;1.364;2022-09-12T18:18:01;26.60;99.90
26408;DHT22;14583;43.604;1.364;2022-09-12T18:20:26;26.80;99.90